createdAt,value
2022-12-28T00:02:25.038Z,101199.72
2022-12-28T00:04:53.642Z,101201.31
2022-12-28T00:07:21.785Z,101210.69
2022-12-28T00:09:49.911Z,101206.25
2022-12-28T00:12:19.508Z,101213.09
2022-12-28T00:14:47.677Z,101207.88
2022-12-28T00:17:15.882Z,101202.69
2022-12-28T00:19:43.995Z,101224.44
2022-12-28T00:22:12.157Z,101216.66
2022-12-28T00:24:40.297Z,101210.56
2022-12-28T00:27:08.462Z,101208.66
2022-12-28T00:29:38.021Z,101219.03
2022-12-28T00:32:06.741Z,101217.34
2022-12-28T00:34:34.921Z,101211.38
2022-12-28T00:37:08.748Z,101214.00
2022-12-28T00:39:41.261Z,101213.31
2022-12-28T00:42:09.450Z,101220.28
2022-12-28T00:44:39.018Z,101212.63
2022-12-28T00:47:07.294Z,101209.41
2022-12-28T00:49:35.514Z,101200.91
2022-12-28T00:52:03.699Z,101220.03
2022-12-28T00:54:31.894Z,101219.09
2022-12-28T00:56:59.995Z,101226.00
2022-12-28T00:59:28.139Z,101230.34
2022-12-28T01:01:57.820Z,101232.03
2022-12-28T01:04:26.083Z,101233.75
2022-12-28T01:06:54.264Z,101233.78
2022-12-28T01:09:22.491Z,101238.91
2022-12-28T01:11:50.776Z,101239.66
2022-12-28T01:14:18.916Z,101243.97
2022-12-28T01:16:47.079Z,101240.53
2022-12-28T01:19:22.230Z,101243.16
2022-12-28T01:21:51.353Z,101243.44
2022-12-28T01:24:19.565Z,101236.69
2022-12-28T01:26:47.704Z,101243.53
2022-12-28T01:29:15.933Z,101236.59
2022-12-28T01:31:44.121Z,101239.13
2022-12-28T01:34:12.231Z,101240.72
2022-12-28T01:36:41.863Z,101236.22
2022-12-28T01:39:10.082Z,101221.53
2022-12-28T01:41:40.234Z,101224.22
2022-12-28T01:44:41.154Z,101214.78
2022-12-28T01:47:14.121Z,101220.88
2022-12-28T01:49:46.491Z,101226.00
2022-12-28T01:52:21.179Z,101222.50
2022-12-28T01:54:53.422Z,101209.38
2022-12-28T01:57:27.487Z,101210.13
2022-12-28T02:00:02.201Z,101205.06
2022-12-28T02:02:31.531Z,101208.53
2022-12-28T02:05:01.605Z,101197.19
2022-12-28T02:07:41.271Z,101203.16
2022-12-28T02:10:41.569Z,101206.53
2022-12-28T02:13:02.127Z,101197.03
2022-12-28T02:15:30.586Z,101191.97
2022-12-28T02:17:59.482Z,101182.47
2022-12-28T02:20:33.885Z,101197.16
2022-12-28T02:23:37.601Z,101209.09
2022-12-28T02:26:42.628Z,101213.28
2022-12-28T02:29:36.405Z,101208.78
2022-12-28T02:32:15.706Z,101213.03
2022-12-28T02:34:51.824Z,101206.88
2022-12-28T02:37:24.187Z,101209.41
2022-12-28T02:39:55.663Z,101212.97
2022-12-28T02:42:26.814Z,101206.88
2022-12-28T02:45:13.971Z,101215.56
2022-12-28T02:48:02.817Z,101214.59
2022-12-28T02:50:41.202Z,101213.78
2022-12-28T02:53:31.854Z,101211.00
2022-12-28T02:56:10.829Z,101212.63
2022-12-28T02:58:58.042Z,101213.50
2022-12-28T03:01:43.329Z,101201.66
2022-12-28T03:04:18.422Z,101207.78
2022-12-28T03:07:12.693Z,101204.38
2022-12-28T03:09:50.319Z,101214.81
2022-12-28T03:12:23.736Z,101210.50
2022-12-28T03:14:56.178Z,101201.94
2022-12-28T03:17:46.642Z,101202.84
2022-12-28T03:20:37.846Z,101192.47
2022-12-28T03:23:27.042Z,101192.50
2022-12-28T03:26:15.077Z,101189.81
2022-12-28T03:29:03.064Z,101195.69
2022-12-28T03:31:34.063Z,101201.59
2022-12-28T03:34:07.826Z,101191.19
2022-12-28T03:36:44.543Z,101195.66
2022-12-28T03:39:24.531Z,101183.63
2022-12-28T03:42:16.069Z,101187.94
2022-12-28T03:44:49.440Z,101178.41
2022-12-28T03:47:19.516Z,101176.63
2022-12-28T03:49:49.242Z,101174.88
2022-12-28T03:52:18.304Z,101173.19
2022-12-28T03:54:46.467Z,101173.16
2022-12-28T03:57:17.091Z,101163.66
2022-12-28T03:59:45.176Z,101155.88
2022-12-28T04:02:13.367Z,101144.66
2022-12-28T04:04:41.611Z,101142.88
2022-12-28T04:07:11.292Z,101142.00
2022-12-28T04:09:39.447Z,101134.19
2022-12-28T04:12:07.877Z,101129.78
2022-12-28T04:14:35.988Z,101142.75
2022-12-28T04:17:04.099Z,101142.69
2022-12-28T04:19:32.264Z,101140.06
2022-12-28T04:22:00.410Z,101143.31
2022-12-28T04:24:29.978Z,101144.13
2022-12-28T04:26:58.205Z,101147.50
2022-12-28T04:29:26.351Z,101149.41
2022-12-28T04:31:54.502Z,101151.13
2022-12-28T04:34:22.651Z,101157.97
2022-12-28T04:36:50.793Z,101150.88
2022-12-28T04:39:19.037Z,101148.97
2022-12-28T04:41:48.578Z,101143.81
2022-12-28T04:44:16.752Z,101148.88
2022-12-28T04:46:44.987Z,101150.53
2022-12-28T04:49:13.199Z,101145.53
2022-12-28T04:51:41.385Z,101140.63
2022-12-28T04:54:13.637Z,101147.50
2022-12-28T04:56:41.788Z,101147.44
2022-12-28T04:59:11.368Z,101150.81
2022-12-28T05:01:39.720Z,101158.56
2022-12-28T05:04:08.003Z,101163.66
2022-12-28T05:06:36.160Z,101158.44
2022-12-28T05:09:04.372Z,101160.97
2022-12-28T05:11:33.173Z,101150.63
2022-12-28T05:14:01.457Z,101155.00
2022-12-28T05:16:31.664Z,101151.69
2022-12-28T05:18:59.883Z,101143.06
2022-12-28T05:21:29.533Z,101149.88
2022-12-28T05:23:58.557Z,101162.75
2022-12-28T05:26:29.070Z,101158.34
2022-12-28T05:28:58.809Z,101153.72
2022-12-28T05:31:27.524Z,101151.78
2022-12-28T05:33:57.291Z,101145.59
2022-12-28T05:36:27.337Z,101142.88
2022-12-28T05:38:56.968Z,101145.28
2022-12-28T05:41:29.602Z,101142.81
2022-12-28T05:43:59.165Z,101152.25
2022-12-28T05:46:30.907Z,101150.69
2022-12-28T05:49:01.175Z,101136.06
2022-12-28T05:51:31.566Z,101126.66
2022-12-28T05:54:00.470Z,101134.56
2022-12-28T05:56:30.681Z,101149.19
2022-12-28T05:59:01.408Z,101147.41
2022-12-28T06:01:31.580Z,101156.06
2022-12-28T06:04:05.561Z,101154.34
2022-12-28T06:06:34.906Z,101145.91
2022-12-28T06:09:03.471Z,101159.88
2022-12-28T06:11:32.210Z,101156.28
2022-12-28T06:14:01.235Z,101153.72
2022-12-28T06:16:32.386Z,101157.00
2022-12-28T06:19:05.855Z,101164.53
2022-12-28T06:21:35.658Z,101169.59
2022-12-28T06:24:05.290Z,101160.84
2022-12-28T06:26:36.105Z,101164.19
2022-12-28T06:29:04.846Z,101152.00
2022-12-28T06:31:34.846Z,101159.78
2022-12-28T06:34:06.403Z,101157.97
2022-12-28T06:36:37.742Z,101167.44
2022-12-28T06:39:08.545Z,101157.97
2022-12-28T06:41:37.061Z,101170.09
2022-12-28T06:44:07.634Z,101157.25
2022-12-28T06:46:36.597Z,101172.19
2022-12-28T06:49:06.845Z,101158.25
2022-12-28T06:51:40.764Z,101175.66
2022-12-28T06:54:10.065Z,101178.31
2022-12-28T06:56:38.727Z,101176.72
2022-12-28T06:59:07.495Z,101176.72
2022-12-28T07:01:38.633Z,101183.69
2022-12-28T07:04:10.302Z,101176.03
2022-12-28T07:06:41.036Z,101185.81
2022-12-28T07:09:13.564Z,101182.38
2022-12-28T07:11:42.482Z,101182.47
2022-12-28T07:14:10.757Z,101173.00
2022-12-28T07:19:07.586Z,101169.75
2022-12-28T07:21:37.706Z,101172.53
2022-12-28T07:24:06.919Z,101181.41
2022-12-28T07:26:36.971Z,101170.47
2022-12-28T07:29:07.416Z,101168.84
2022-12-28T07:31:44.113Z,101162.16
2022-12-28T07:34:16.370Z,101158.03
2022-12-28T07:36:45.055Z,101163.44
2022-12-28T07:39:13.535Z,101160.19
2022-12-28T07:41:41.980Z,101165.50
2022-12-28T07:44:10.236Z,101157.84
2022-12-28T07:46:39.023Z,101156.91
2022-12-28T07:49:07.962Z,101146.53
2022-12-28T07:51:39.417Z,101160.47
2022-12-28T07:54:08.508Z,101166.56
2022-12-28T07:59:05.956Z,101164.00
2022-12-28T08:01:35.729Z,101172.69
2022-12-28T08:04:06.303Z,101172.69
2022-12-28T08:06:38.399Z,101176.19
2022-12-28T08:09:08.027Z,101177.13
2022-12-28T08:11:37.933Z,101170.22
2022-12-28T08:14:06.781Z,101178.94
2022-12-28T08:16:37.029Z,101173.81
2022-12-28T08:19:06.265Z,101174.75
2022-12-28T08:21:36.221Z,101175.69
2022-12-28T08:24:07.053Z,101171.41
2022-12-28T08:26:37.373Z,101160.13
2022-12-28T08:29:07.911Z,101170.59
2022-12-28T08:31:37.645Z,101157.69
2022-12-28T08:34:07.970Z,101169.00
2022-12-28T08:36:36.537Z,101166.44
2022-12-28T08:39:06.650Z,101167.38
2022-12-28T08:41:35.009Z,101159.63
2022-12-28T08:44:03.412Z,101164.84
2022-12-28T08:46:33.418Z,101165.75
2022-12-28T08:49:02.284Z,101156.22
2022-12-28T08:51:33.899Z,101165.78
2022-12-28T08:54:03.101Z,101171.88
2022-12-28T08:56:34.982Z,101166.72
2022-12-28T08:59:03.873Z,101165.00
2022-12-28T09:01:40.782Z,101164.16
2022-12-28T09:04:16.641Z,101166.75
2022-12-28T09:06:45.445Z,101166.75
2022-12-28T09:09:15.775Z,101158.97
2022-12-28T09:11:45.831Z,101164.16
2022-12-28T09:14:22.546Z,101158.94
2022-12-28T09:16:52.392Z,101146.78
2022-12-28T09:19:23.469Z,101134.63
2022-12-28T09:21:53.367Z,101147.59
2022-12-28T09:24:22.081Z,101134.53
2022-12-28T09:26:53.322Z,101130.06
2022-12-28T09:29:21.717Z,101131.69
2022-12-28T09:31:50.048Z,101134.22
2022-12-28T09:37:06.991Z,101128.16
2022-12-28T09:39:35.517Z,101120.38
2022-12-28T09:42:10.561Z,101109.91
2022-12-28T09:44:58.001Z,101118.69
2022-12-28T09:47:31.827Z,101122.09
2022-12-28T09:50:08.676Z,101115.88
2022-12-28T09:52:49.508Z,101105.38
2022-12-28T09:55:20.500Z,101101.81
2022-12-28T09:57:54.617Z,101083.63
2022-12-28T10:00:28.781Z,101093.84
2022-12-28T10:03:02.102Z,101082.47
2022-12-28T10:05:31.163Z,101071.88
2022-12-28T10:08:03.549Z,101074.34
2022-12-28T10:10:31.936Z,101067.31
2022-12-28T10:13:45.401Z,101072.44
2022-12-28T10:16:05.575Z,101062.81
2022-12-28T10:18:39.325Z,101062.00
2022-12-28T10:21:07.944Z,101054.25
2022-12-28T10:23:50.111Z,101061.97
2022-12-28T10:26:27.011Z,101057.38
2022-12-28T10:29:00.941Z,101062.31
2022-12-28T10:31:34.530Z,101056.84
2022-12-28T10:34:03.042Z,101053.84
2022-12-28T10:36:35.069Z,101051.75
2022-12-28T10:39:05.494Z,101049.84
2022-12-28T10:41:37.359Z,101055.84
2022-12-28T10:44:38.985Z,101054.88
2022-12-28T10:47:26.647Z,101057.28
2022-12-28T10:52:43.032Z,101057.25
2022-12-28T10:55:29.251Z,101057.28
2022-12-28T11:00:56.109Z,101049.59
2022-12-28T11:03:27.217Z,101060.06
2022-12-28T11:06:20.106Z,101050.44
2022-12-28T11:09:04.212Z,101046.00
2022-12-28T11:11:33.817Z,101042.47
2022-12-28T11:14:07.629Z,101040.53
2022-12-28T11:16:39.301Z,101036.00
2022-12-28T11:19:07.534Z,101033.34
2022-12-28T11:21:37.328Z,101031.44
2022-12-28T11:24:07.433Z,101036.56
2022-12-28T11:26:35.751Z,101018.28
2022-12-28T11:29:05.989Z,101019.09
2022-12-28T11:31:41.580Z,101018.19
2022-12-28T11:34:18.410Z,101012.00
2022-12-28T11:36:47.958Z,101006.53
2022-12-28T11:39:46.803Z,101004.31
2022-12-28T11:42:59.773Z,100997.31
2022-12-28T11:45:51.970Z,100986.94
2022-12-28T11:48:51.088Z,100993.94
2022-12-28T11:51:21.801Z,100980.94
2022-12-28T11:53:52.821Z,100975.00
2022-12-28T11:56:21.636Z,100981.84
2022-12-28T11:59:23.248Z,100973.13
2022-12-28T12:01:56.337Z,100970.44
2022-12-28T12:04:45.232Z,100966.88
2022-12-28T12:07:31.665Z,100949.53
2022-12-28T12:10:41.925Z,100959.16
2022-12-28T12:13:44.915Z,100939.00
2022-12-28T12:16:24.310Z,100934.22
2022-12-28T12:18:55.953Z,100929.31
2022-12-28T12:21:34.727Z,100913.03
2022-12-28T12:24:14.771Z,100925.41
2022-12-28T12:26:50.611Z,100916.69
2022-12-28T12:29:23.992Z,100918.72
2022-12-28T12:32:00.769Z,100918.88
2022-12-28T12:34:38.245Z,100917.25
2022-12-28T12:37:39.501Z,100919.13
2022-12-28T12:40:39.233Z,100916.69
2022-12-28T12:43:26.834Z,100914.84
2022-12-28T12:46:01.817Z,100908.72
2022-12-28T12:48:44.429Z,100904.25
2022-12-28T12:51:24.937Z,100901.75
2022-12-28T12:54:04.628Z,100892.13
2022-12-28T12:56:44.498Z,100886.03
2022-12-28T12:59:37.601Z,100879.91
2022-12-28T13:02:29.038Z,100889.50
2022-12-28T13:04:57.502Z,100892.13
2022-12-28T13:07:28.491Z,100871.28
2022-12-28T13:10:00.687Z,100876.41
2022-12-28T13:12:29.026Z,100879.88
2022-12-28T13:15:01.172Z,100873.00
2022-12-28T13:17:30.837Z,100878.19
2022-12-28T13:20:19.490Z,100877.38
2022-12-28T13:22:49.842Z,100861.78
2022-12-28T13:25:27.353Z,100862.81
2022-12-28T13:27:55.837Z,100872.56
2022-12-28T13:30:25.975Z,100866.84
2022-12-28T13:32:56.415Z,100876.66
2022-12-28T13:35:26.495Z,100867.38
2022-12-28T13:38:02.934Z,100856.25
2022-12-28T13:40:34.126Z,100857.22
2022-12-28T13:43:20.627Z,100845.91
2022-12-28T13:45:53.564Z,100848.47
2022-12-28T13:48:22.696Z,100845.03
2022-12-28T13:50:52.906Z,100835.53
2022-12-28T13:53:24.334Z,100828.56
2022-12-28T13:55:57.400Z,100826.78
2022-12-28T13:58:31.738Z,100831.16
2022-12-28T14:01:02.621Z,100829.47
2022-12-28T14:03:38.976Z,100830.41
2022-12-28T14:06:09.359Z,100824.53
2022-12-28T14:08:40.126Z,100822.72
2022-12-28T14:11:11.516Z,100822.81
2022-12-28T14:13:40.887Z,100824.72
2022-12-28T14:16:10.141Z,100824.97
2022-12-28T14:18:39.135Z,100829.44
2022-12-28T14:21:07.816Z,100821.69
2022-12-28T14:23:38.285Z,100828.81
2022-12-28T14:26:12.015Z,100830.72
2022-12-28T14:28:45.356Z,100829.94
2022-12-28T14:31:21.047Z,100821.44
2022-12-28T14:33:53.851Z,100825.84
2022-12-28T14:36:23.184Z,100830.31
2022-12-28T14:38:56.307Z,100819.94
2022-12-28T14:41:32.205Z,100829.53
2022-12-28T14:44:03.563Z,100824.41
2022-12-28T14:46:35.265Z,100828.91
2022-12-28T14:49:38.257Z,100812.53
2022-12-28T14:52:35.711Z,100816.94
2022-12-28T14:55:22.143Z,100818.75
2022-12-28T14:57:53.173Z,100817.09
2022-12-28T15:00:28.639Z,100818.97
2022-12-28T15:03:00.864Z,100824.19
2022-12-28T15:05:44.658Z,100828.56
2022-12-28T15:08:19.152Z,100826.97
2022-12-28T15:10:52.641Z,100801.97
2022-12-28T15:13:22.633Z,100810.75
2022-12-28T15:15:59.136Z,100803.09
2022-12-28T15:18:29.261Z,100816.09
2022-12-28T15:21:03.980Z,100821.41
2022-12-28T15:23:34.640Z,100813.78
2022-12-28T15:26:07.872Z,100825.09
2022-12-28T15:28:36.290Z,100830.41
2022-12-28T15:31:07.306Z,100835.66
2022-12-28T15:33:36.176Z,100835.88
2022-12-28T15:36:10.774Z,100835.91
2022-12-28T15:38:41.937Z,100826.38
2022-12-28T15:41:30.337Z,100816.91
2022-12-28T15:43:58.859Z,100832.50
2022-12-28T15:46:27.455Z,100829.88
2022-12-28T15:48:57.796Z,100827.28
2022-12-28T15:51:27.841Z,100815.16
2022-12-28T15:53:56.113Z,100836.00
2022-12-28T15:56:26.999Z,100825.59
2022-12-28T15:58:56.569Z,100825.59
2022-12-28T16:01:28.893Z,100829.13
2022-12-28T16:03:59.652Z,100825.63
2022-12-28T16:06:31.472Z,100820.41
2022-12-28T16:09:08.979Z,100815.28
2022-12-28T16:11:39.492Z,100813.53
2022-12-28T16:14:09.351Z,100820.50
2022-12-28T16:16:44.890Z,100806.63
2022-12-28T16:19:19.257Z,100810.94
2022-12-28T16:21:53.704Z,100815.22
2022-12-28T16:27:09.999Z,100812.56
2022-12-28T16:29:38.844Z,100822.03
2022-12-28T16:32:09.102Z,100827.25
2022-12-28T16:34:38.009Z,100820.25
2022-12-28T16:37:10.213Z,100823.69
2022-12-28T16:39:42.095Z,100808.16
2022-12-28T16:42:13.140Z,100821.94
2022-12-28T16:44:42.169Z,100822.84
2022-12-28T16:47:11.672Z,100825.34
2022-12-28T16:49:42.259Z,100827.03
2022-12-28T16:52:12.242Z,100814.97
2022-12-28T16:54:40.960Z,100819.22
2022-12-28T16:57:12.532Z,100820.25
2022-12-28T16:59:41.233Z,100825.50
2022-12-28T17:02:15.170Z,100828.22
2022-12-28T17:04:44.538Z,100823.03
2022-12-28T17:07:14.378Z,100824.94
2022-12-28T17:09:49.975Z,100819.72
2022-12-28T17:12:18.537Z,100810.28
2022-12-28T17:14:46.761Z,100813.91
2022-12-28T17:17:15.036Z,100816.47
2022-12-28T17:19:43.248Z,100814.78
2022-12-28T17:22:11.501Z,100810.56
2022-12-28T17:24:41.197Z,100811.44
2022-12-28T17:27:13.108Z,100813.25
2022-12-28T17:29:45.790Z,100805.56
2022-12-28T17:32:14.497Z,100803.03
2022-12-28T17:34:43.154Z,100790.91
2022-12-28T17:37:11.443Z,100787.50
2022-12-28T17:39:41.537Z,100791.09
2022-12-28T17:42:10.847Z,100784.28
2022-12-28T17:44:39.408Z,100786.94
2022-12-28T17:47:08.363Z,100791.34
2022-12-28T17:49:36.988Z,100782.75
2022-12-28T17:52:07.008Z,100775.84
2022-12-28T17:54:35.588Z,100780.22
2022-12-28T17:57:05.410Z,100789.78
2022-12-28T17:59:33.965Z,100781.16
2022-12-28T18:02:09.533Z,100764.75
2022-12-28T18:04:38.360Z,100764.75
2022-12-28T18:07:09.339Z,100767.31
2022-12-28T18:09:38.458Z,100759.59
2022-12-28T18:12:08.546Z,100757.94
2022-12-28T18:14:36.932Z,100751.88
2022-12-28T18:17:05.433Z,100751.00
2022-12-28T18:19:34.641Z,100728.56
2022-12-28T18:22:02.857Z,100757.94
2022-12-28T18:24:31.917Z,100747.56
2022-12-28T18:27:00.044Z,100752.78
2022-12-28T18:29:30.107Z,100753.66
2022-12-28T18:31:58.352Z,100741.59
2022-12-28T18:34:26.946Z,100751.97
2022-12-28T18:36:55.602Z,100738.19
2022-12-28T18:39:26.216Z,100754.66
2022-12-28T18:41:54.728Z,100751.19
2022-12-28T18:44:23.477Z,100760.75
2022-12-28T18:46:54.481Z,100758.16
2022-12-28T18:49:23.138Z,100759.03
2022-12-28T18:51:51.604Z,100757.31
2022-12-28T18:54:20.054Z,100754.72
2022-12-28T18:56:48.277Z,100765.13
2022-12-28T18:59:16.754Z,100770.34
2022-12-28T19:04:35.506Z,100776.38
2022-12-28T19:07:04.435Z,100774.63
2022-12-28T19:09:33.327Z,100784.16
2022-12-28T19:12:01.811Z,100765.13
2022-12-28T19:14:30.381Z,100764.25
2022-12-28T19:16:59.965Z,100758.16
2022-12-28T19:19:28.266Z,100763.38
2022-12-28T19:21:59.081Z,100765.94
2022-12-28T19:24:30.446Z,100767.66
2022-12-28T19:26:59.193Z,100765.09
2022-12-28T19:29:27.481Z,100762.50
2022-12-28T19:31:57.280Z,100757.28
2022-12-28T19:34:28.503Z,100758.19
2022-12-28T19:36:58.836Z,100758.22
2022-12-28T19:39:28.412Z,100756.50
2022-12-28T19:41:57.264Z,100765.16
2022-12-28T19:44:25.849Z,100759.97
2022-12-28T19:46:58.892Z,100758.25
2022-12-28T19:49:28.175Z,100753.94
2022-12-28T19:51:58.741Z,100757.41
2022-12-28T19:54:27.743Z,100754.81
2022-12-28T19:56:56.143Z,100749.63
2022-12-28T19:59:24.910Z,100753.09
2022-12-28T20:01:53.646Z,100745.31
2022-12-28T20:04:22.678Z,100750.50
2022-12-28T20:06:51.118Z,100741.00
2022-12-28T20:09:22.662Z,100740.16
2022-12-28T20:11:51.051Z,100742.72
2022-12-28T20:14:24.976Z,100740.13
2022-12-28T20:16:54.632Z,100746.16
2022-12-28T20:19:26.857Z,100743.59
2022-12-28T20:21:55.475Z,100740.97
2022-12-28T20:24:26.046Z,100741.00
2022-12-28T20:27:01.152Z,100732.38
2022-12-28T20:29:38.129Z,100732.34
2022-12-28T20:32:10.794Z,100719.44
2022-12-28T20:34:39.538Z,100725.47
2022-12-28T20:37:08.477Z,100715.97
2022-12-28T20:39:39.738Z,100720.28
2022-12-28T20:42:25.516Z,100710.78
2022-12-28T20:44:54.336Z,100722.88
2022-12-28T20:47:22.802Z,100722.00
2022-12-28T20:49:54.028Z,100722.03
2022-12-28T20:52:22.905Z,100708.19
2022-12-28T20:54:52.515Z,100713.38
2022-12-28T20:57:20.821Z,100715.13
2022-12-28T20:59:49.057Z,100723.75
2022-12-28T21:02:20.994Z,100722.03
2022-12-28T21:04:49.133Z,100709.91
2022-12-28T21:07:19.972Z,100722.88
2022-12-28T21:09:50.948Z,100722.91
2022-12-28T21:12:20.574Z,100728.09
2022-12-28T21:14:48.708Z,100713.41
2022-12-28T21:17:18.283Z,100716.84
2022-12-28T21:19:47.795Z,100712.53
2022-12-28T21:22:17.308Z,100722.03
2022-12-28T21:24:48.314Z,100720.31
2022-12-28T21:27:17.165Z,100721.19
2022-12-28T21:29:47.188Z,100713.41
2022-12-28T21:32:15.795Z,100718.59
2022-12-28T21:34:44.112Z,100713.41
2022-12-28T21:37:33.192Z,100716.00
2022-12-28T21:40:04.328Z,100713.41
2022-12-28T21:42:32.772Z,100716.84
2022-12-28T21:45:02.697Z,100707.34
2022-12-28T21:47:31.161Z,100708.22
2022-12-28T21:49:59.890Z,100702.16
2022-12-28T21:52:31.033Z,100706.47
2022-12-28T21:55:19.558Z,100698.72
2022-12-28T21:57:51.329Z,100696.09
2022-12-28T22:00:41.798Z,100690.94
2022-12-28T22:03:27.593Z,100684.03
2022-12-28T22:06:06.501Z,100686.63
2022-12-28T22:08:52.455Z,100673.66
2022-12-28T22:11:39.294Z,100682.31
2022-12-28T22:14:11.235Z,100682.28
2022-12-28T22:16:40.994Z,100685.72
2022-12-28T22:19:09.187Z,100682.28
2022-12-28T22:21:37.312Z,100672.78
2022-12-28T22:24:06.127Z,100677.13
2022-12-28T22:26:34.440Z,100676.25
2022-12-28T22:29:03.765Z,100671.94
2022-12-28T22:31:31.944Z,100671.06
2022-12-28T22:34:06.841Z,100665.03
2022-12-28T22:36:35.607Z,100661.56
2022-12-28T22:39:03.713Z,100649.50
2022-12-28T22:41:31.844Z,100655.53
2022-12-28T22:43:59.943Z,100646.88
2022-12-28T22:46:28.120Z,100639.97
2022-12-28T22:48:56.229Z,100627.03
2022-12-28T22:51:25.912Z,100637.38
2022-12-28T22:53:54.112Z,100627.91
2022-12-28T22:56:22.485Z,100619.25
2022-12-28T22:58:50.805Z,100636.53
2022-12-28T23:01:20.717Z,100625.28
2022-12-28T23:03:49.917Z,100635.66
2022-12-28T23:06:20.513Z,100624.41
2022-12-28T23:08:50.104Z,100626.19
2022-12-28T23:11:35.764Z,100627.00
2022-12-28T23:14:19.200Z,100630.50
2022-12-28T23:16:47.438Z,100610.63
2022-12-28T23:19:33.737Z,100612.34
2022-12-28T23:22:19.875Z,100592.50
2022-12-28T23:25:06.886Z,100599.41
2022-12-28T23:27:37.642Z,100597.69
2022-12-28T23:30:07.785Z,100601.97
2022-12-28T23:32:36.004Z,100603.72
2022-12-28T23:35:04.806Z,100614.06
2022-12-28T23:37:33.221Z,100602.00
2022-12-28T23:40:02.840Z,100596.81
2022-12-28T23:42:31.006Z,100582.13
2022-12-28T23:44:59.180Z,100589.06
2022-12-28T23:47:27.334Z,100577.84
2022-12-28T23:49:55.430Z,100576.09
2022-12-28T23:52:26.009Z,100578.69
2022-12-28T23:54:54.365Z,100582.13
2022-12-28T23:57:24.441Z,100588.16
2022-12-28T23:59:52.757Z,100596.81
